createdAt,value
2019-03-10T00:01:56.179Z,24.52
2019-03-10T00:04:30.295Z,24.53
2019-03-10T00:07:04.616Z,24.52
2019-03-10T00:09:39.184Z,24.51
2019-03-10T00:12:13.311Z,24.52
2019-03-10T00:14:49.647Z,24.49
2019-03-10T00:17:24.892Z,24.48
2019-03-10T00:19:59.245Z,24.48
2019-03-10T00:22:33.679Z,24.49
2019-03-10T00:25:08.271Z,24.47
2019-03-10T00:27:42.616Z,24.47
2019-03-10T00:30:17.162Z,24.49
2019-03-10T00:32:52.520Z,24.45
2019-03-10T00:35:26.780Z,24.44
2019-03-10T00:38:00.980Z,24.43
2019-03-10T00:41:05.592Z,24.42
2019-03-10T00:44:18.409Z,24.42
2019-03-10T00:47:17.324Z,24.40
2019-03-10T00:50:33.099Z,24.39
2019-03-10T00:53:07.069Z,24.40
2019-03-10T00:55:41.190Z,24.40
2019-03-10T00:58:15.617Z,24.39
2019-03-10T01:00:49.927Z,24.38
2019-03-10T01:03:25.100Z,24.37
2019-03-10T01:05:59.478Z,24.37
2019-03-10T01:08:33.552Z,24.36
2019-03-10T01:11:07.901Z,24.35
2019-03-10T01:13:41.993Z,24.35
2019-03-10T01:16:16.541Z,24.36
2019-03-10T01:18:53.982Z,24.35
2019-03-10T01:21:31.758Z,24.33
2019-03-10T01:24:06.229Z,24.35
2019-03-10T01:26:40.413Z,24.34
2019-03-10T01:29:14.661Z,24.31
2019-03-10T01:32:18.101Z,24.28
2019-03-10T01:34:59.954Z,24.23
2019-03-10T01:37:33.919Z,24.24
2019-03-10T01:40:09.751Z,24.24
2019-03-10T01:42:44.112Z,24.23
2019-03-10T01:45:18.532Z,24.25
2019-03-10T01:47:53.057Z,24.26
2019-03-10T01:50:27.162Z,24.23
2019-03-10T01:53:02.489Z,24.24
2019-03-10T01:55:36.706Z,24.22
2019-03-10T01:58:10.690Z,24.22
2019-03-10T02:00:44.856Z,24.21
2019-03-10T02:03:21.129Z,24.20
2019-03-10T02:05:55.493Z,24.19
2019-03-10T02:08:29.696Z,24.19
2019-03-10T02:11:04.989Z,24.18
2019-03-10T02:13:39.065Z,24.18
2019-03-10T02:16:13.272Z,24.17
2019-03-10T02:18:47.484Z,24.17
2019-03-10T02:21:21.833Z,24.16
2019-03-10T02:23:56.115Z,24.17
2019-03-10T02:26:30.195Z,24.14
2019-03-10T02:29:04.708Z,24.14
2019-03-10T02:31:38.844Z,24.14
2019-03-10T02:34:15.169Z,24.14
2019-03-10T02:36:49.255Z,24.13
2019-03-10T02:39:23.584Z,24.12
2019-03-10T02:41:58.949Z,24.11
2019-03-10T02:44:33.257Z,24.09
2019-03-10T02:47:07.340Z,24.09
2019-03-10T02:49:41.371Z,24.09
2019-03-10T02:52:15.626Z,24.08
2019-03-10T02:54:49.507Z,24.09
2019-03-10T02:57:24.874Z,24.10
2019-03-10T02:59:59.036Z,24.09
2019-03-10T03:02:33.272Z,24.09
2019-03-10T03:05:08.217Z,24.09
2019-03-10T03:07:42.552Z,24.06
2019-03-10T03:10:17.365Z,24.02
2019-03-10T03:12:52.607Z,24.02
2019-03-10T03:15:26.719Z,24.01
2019-03-10T03:18:02.905Z,24.00
2019-03-10T03:20:37.136Z,24.00
2019-03-10T03:23:12.272Z,23.99
2019-03-10T03:25:46.307Z,23.99
2019-03-10T03:28:21.677Z,23.89
2019-03-10T03:30:56.765Z,23.80
2019-03-10T03:33:32.103Z,23.75
2019-03-10T03:36:11.092Z,23.73
2019-03-10T03:38:52.102Z,23.70
2019-03-10T03:41:26.350Z,23.69
2019-03-10T03:44:00.448Z,23.67
2019-03-10T03:46:34.546Z,23.66
2019-03-10T03:49:08.783Z,23.65
2019-03-10T03:51:43.309Z,23.64
2019-03-10T03:54:17.755Z,23.62
2019-03-10T03:56:55.887Z,23.63
2019-03-10T03:59:33.430Z,23.60
2019-03-10T04:02:19.282Z,23.60
2019-03-10T04:04:54.555Z,23.57
2019-03-10T04:07:28.866Z,23.57
2019-03-10T04:10:04.242Z,23.56
2019-03-10T04:12:38.753Z,23.81
2019-03-10T04:15:13.025Z,23.85
2019-03-10T04:17:47.238Z,23.83
2019-03-10T04:20:21.507Z,23.86
2019-03-10T04:22:55.816Z,23.91
2019-03-10T04:25:30.124Z,23.91
2019-03-10T04:28:04.406Z,23.89
2019-03-10T04:30:38.542Z,23.91
2019-03-10T04:33:12.739Z,23.92
2019-03-10T04:35:47.159Z,23.93
2019-03-10T04:38:21.296Z,23.94
2019-03-10T04:40:55.387Z,23.94
2019-03-10T04:43:32.776Z,23.96
2019-03-10T04:46:07.977Z,23.96
2019-03-10T04:48:42.173Z,23.95
2019-03-10T04:51:16.568Z,23.95
2019-03-10T04:53:50.945Z,23.92
2019-03-10T04:56:59.314Z,23.91
2019-03-10T04:59:33.493Z,23.83
2019-03-10T05:02:07.731Z,23.89
2019-03-10T05:04:41.965Z,23.93
2019-03-10T05:07:16.349Z,23.91
2019-03-10T05:09:50.855Z,23.89
2019-03-10T05:12:25.078Z,23.85
2019-03-10T05:14:59.427Z,23.86
2019-03-10T05:17:33.676Z,23.85
2019-03-10T05:20:08.351Z,23.84
2019-03-10T05:22:42.496Z,23.84
2019-03-10T05:25:16.840Z,23.86
2019-03-10T05:27:51.146Z,23.86
2019-03-10T05:30:25.606Z,23.85
2019-03-10T05:32:59.993Z,23.84
2019-03-10T05:35:34.284Z,23.72
2019-03-10T05:38:08.524Z,23.66
2019-03-10T05:40:42.657Z,23.61
2019-03-10T05:43:16.654Z,23.58
2019-03-10T05:45:50.876Z,23.56
2019-03-10T05:48:25.145Z,23.55
2019-03-10T05:50:59.348Z,23.54
2019-03-10T05:53:33.323Z,23.54
2019-03-10T05:56:07.569Z,23.53
2019-03-10T05:58:41.800Z,23.52
2019-03-10T06:01:16.047Z,23.50
2019-03-10T06:03:50.056Z,23.51
2019-03-10T06:06:24.239Z,23.50
2019-03-10T06:08:58.278Z,23.49
2019-03-10T06:11:32.455Z,23.49
2019-03-10T06:14:06.866Z,23.47
2019-03-10T06:16:41.073Z,23.47
2019-03-10T06:19:15.512Z,23.47
2019-03-10T06:21:49.804Z,23.46
2019-03-10T06:24:24.286Z,23.46
2019-03-10T06:26:58.747Z,23.44
2019-03-10T06:29:33.098Z,23.44
2019-03-10T06:32:07.128Z,23.46
2019-03-10T06:34:41.454Z,23.43
2019-03-10T06:37:16.605Z,23.43
2019-03-10T06:39:51.135Z,23.43
2019-03-10T06:42:25.888Z,23.42
2019-03-10T06:45:01.057Z,23.41
2019-03-10T06:47:35.394Z,23.44
2019-03-10T06:50:12.416Z,23.42
2019-03-10T06:52:46.486Z,23.42
2019-03-10T06:55:20.959Z,23.43
2019-03-10T06:57:55.153Z,23.42
2019-03-10T07:00:29.401Z,23.42
2019-03-10T07:03:03.647Z,23.41
2019-03-10T07:05:38.301Z,23.41
2019-03-10T07:08:13.470Z,23.40
2019-03-10T07:10:48.784Z,23.40
2019-03-10T07:13:23.405Z,23.41
2019-03-10T07:15:58.033Z,23.39
2019-03-10T07:18:32.401Z,23.40
2019-03-10T07:21:07.581Z,23.40
2019-03-10T07:23:44.148Z,23.38
2019-03-10T07:26:18.665Z,23.39
2019-03-10T07:29:11.572Z,23.39
2019-03-10T07:32:10.676Z,23.39
2019-03-10T07:35:16.118Z,23.40
2019-03-10T07:37:57.926Z,23.41
2019-03-10T07:41:00.175Z,23.40
2019-03-10T07:43:42.489Z,23.40
2019-03-10T07:46:25.829Z,23.40
2019-03-10T07:49:18.538Z,23.40
2019-03-10T07:52:19.767Z,23.40
2019-03-10T07:54:57.668Z,23.40
2019-03-10T07:57:46.255Z,23.40
2019-03-10T08:00:38.447Z,23.41
2019-03-10T08:03:30.272Z,23.40
2019-03-10T08:06:23.332Z,23.39
2019-03-10T08:09:20.430Z,23.40
2019-03-10T08:12:11.090Z,23.41
2019-03-10T08:15:23.541Z,23.40
2019-03-10T08:18:22.178Z,23.41
2019-03-10T08:21:32.796Z,23.40
2019-03-10T08:24:16.674Z,23.41
2019-03-10T08:27:08.259Z,23.41
2019-03-10T08:30:19.594Z,23.69
2019-03-10T08:33:11.428Z,23.79
2019-03-10T08:36:08.727Z,23.80
2019-03-10T08:38:51.413Z,23.88
2019-03-10T08:41:36.885Z,23.90
2019-03-10T08:44:27.245Z,23.93
2019-03-10T08:47:32.200Z,23.96
2019-03-10T08:50:28.328Z,23.96
2019-03-10T08:53:28.505Z,23.99
2019-03-10T08:56:19.920Z,24.01
2019-03-10T08:59:06.668Z,24.03
2019-03-10T09:02:11.410Z,24.04
2019-03-10T09:05:07.341Z,24.05
2019-03-10T09:08:00.630Z,24.05
2019-03-10T09:10:49.160Z,24.06
2019-03-10T09:13:40.934Z,24.10
2019-03-10T09:16:39.173Z,24.13
2019-03-10T09:19:36.313Z,24.15
2019-03-10T09:22:17.903Z,24.14
2019-03-10T09:25:08.759Z,24.17
2019-03-10T09:28:13.633Z,24.19
2019-03-10T09:30:53.490Z,24.17
2019-03-10T09:33:33.085Z,24.23
2019-03-10T09:36:24.533Z,24.21
2019-03-10T09:39:30.036Z,24.19
2019-03-10T09:42:28.669Z,24.22
2019-03-10T09:45:35.047Z,24.21
2019-03-10T09:48:39.381Z,24.25
2019-03-10T09:51:40.145Z,24.24
2019-03-10T09:54:35.883Z,24.24
2019-03-10T09:57:40.799Z,24.25
2019-03-10T10:00:29.005Z,24.24
2019-03-10T10:03:14.165Z,24.24
2019-03-10T10:06:16.233Z,24.24
2019-03-10T10:09:12.156Z,24.29
2019-03-10T10:11:55.368Z,24.31
2019-03-10T10:14:40.456Z,24.33
2019-03-10T10:17:29.423Z,24.30
2019-03-10T10:20:13.307Z,24.32
2019-03-10T10:23:09.590Z,24.34
2019-03-10T10:25:54.016Z,24.35
2019-03-10T10:28:39.305Z,24.35
2019-03-10T10:31:38.344Z,24.35
2019-03-10T10:34:37.511Z,24.35
2019-03-10T10:37:19.800Z,24.39
2019-03-10T10:40:21.599Z,24.40
2019-03-10T10:43:13.193Z,24.41
2019-03-10T10:45:56.867Z,24.41
2019-03-10T10:48:41.257Z,24.46
2019-03-10T10:51:33.679Z,24.45
2019-03-10T10:54:23.954Z,24.46
2019-03-10T10:57:09.632Z,24.47
2019-03-10T10:59:58.969Z,24.48
2019-03-10T11:02:51.823Z,24.49
2019-03-10T11:05:52.045Z,24.51
2019-03-10T11:08:36.628Z,24.55
2019-03-10T11:11:33.450Z,24.54
2019-03-10T11:14:34.748Z,24.55
2019-03-10T11:17:40.455Z,24.56
2019-03-10T11:20:34.753Z,24.58
2019-03-10T11:23:24.463Z,24.60
2019-03-10T11:26:08.613Z,24.61
2019-03-10T11:29:04.635Z,24.63
2019-03-10T11:32:03.896Z,24.64
2019-03-10T11:34:50.850Z,24.63
2019-03-10T11:37:42.370Z,24.66
2019-03-10T11:40:28.330Z,24.67
2019-03-10T11:43:13.635Z,24.71
2019-03-10T11:46:07.478Z,24.70
2019-03-10T11:48:59.088Z,24.72
2019-03-10T11:51:43.385Z,24.70
2019-03-10T11:54:42.547Z,24.78
2019-03-10T11:57:45.993Z,24.74
2019-03-10T12:00:41.962Z,24.77
2019-03-10T12:03:44.250Z,24.80
2019-03-10T12:06:24.639Z,24.78
2019-03-10T12:09:17.458Z,24.84
2019-03-10T12:11:50.210Z,24.85
2019-03-10T12:14:25.343Z,24.85
2019-03-10T12:16:59.546Z,24.87
2019-03-10T12:19:34.532Z,24.88
2019-03-10T12:22:08.914Z,24.88
2019-03-10T12:24:43.297Z,24.90
2019-03-10T12:27:17.490Z,24.90
2019-03-10T12:29:51.599Z,24.91
2019-03-10T12:32:25.903Z,24.90
2019-03-10T12:35:00.207Z,24.92
2019-03-10T12:37:34.370Z,24.95
2019-03-10T12:40:09.062Z,24.95
2019-03-10T12:42:44.177Z,24.95
2019-03-10T12:45:18.474Z,24.97
2019-03-10T12:47:52.783Z,24.94
2019-03-10T12:50:26.989Z,24.98
2019-03-10T12:53:01.320Z,24.98
2019-03-10T12:55:35.597Z,24.99
2019-03-10T12:58:10.854Z,25.02
2019-03-10T13:00:45.210Z,25.02
2019-03-10T13:03:20.750Z,25.02
2019-03-10T13:05:54.685Z,25.04
2019-03-10T13:08:29.193Z,25.02
2019-03-10T13:11:05.374Z,25.00
2019-03-10T13:13:39.754Z,25.01
2019-03-10T13:16:13.999Z,25.10
2019-03-10T13:18:48.283Z,24.98
2019-03-10T13:21:22.686Z,24.98
2019-03-10T13:23:57.026Z,24.98
2019-03-10T13:26:31.174Z,24.99
2019-03-10T13:29:05.545Z,25.01
2019-03-10T13:31:39.567Z,24.98
2019-03-10T13:34:13.860Z,25.04
2019-03-10T13:36:48.272Z,24.99
2019-03-10T13:39:22.713Z,24.95
2019-03-10T13:41:57.043Z,25.03
2019-03-10T13:44:31.396Z,25.01
2019-03-10T13:47:05.749Z,25.04
2019-03-10T13:49:39.920Z,25.06
2019-03-10T13:52:17.151Z,25.05
2019-03-10T13:54:51.663Z,25.05
2019-03-10T13:57:27.225Z,25.01
2019-03-10T14:00:01.455Z,24.90
2019-03-10T14:02:36.665Z,24.82
2019-03-10T14:05:12.280Z,24.77
2019-03-10T14:07:46.353Z,24.72
2019-03-10T14:10:20.730Z,24.70
2019-03-10T14:12:55.057Z,24.66
2019-03-10T14:15:30.286Z,24.64
2019-03-10T14:18:04.177Z,24.63
2019-03-10T14:20:39.464Z,24.60
2019-03-10T14:23:13.481Z,24.59
2019-03-10T14:25:47.780Z,24.57
2019-03-10T14:28:22.455Z,24.56
2019-03-10T14:30:56.880Z,24.56
2019-03-10T14:33:32.193Z,24.56
2019-03-10T14:36:06.515Z,24.56
2019-03-10T14:38:40.574Z,24.57
2019-03-10T14:41:14.655Z,24.54
2019-03-10T14:43:49.327Z,24.90
2019-03-10T14:46:24.355Z,24.94
2019-03-10T14:48:58.603Z,24.95
2019-03-10T14:51:32.722Z,24.93
2019-03-10T14:54:09.367Z,24.80
2019-03-10T14:56:43.549Z,24.72
2019-03-10T14:59:17.885Z,24.67
2019-03-10T15:01:52.960Z,24.64
2019-03-10T15:04:33.573Z,24.59
2019-03-10T15:07:07.834Z,24.58
2019-03-10T15:09:41.957Z,24.57
2019-03-10T15:12:16.005Z,24.56
2019-03-10T15:14:50.334Z,24.53
2019-03-10T15:17:24.476Z,24.54
2019-03-10T15:19:58.515Z,24.52
2019-03-10T15:22:32.559Z,24.52
2019-03-10T15:25:07.210Z,24.51
2019-03-10T15:27:41.564Z,24.51
2019-03-10T15:30:18.356Z,24.50
2019-03-10T15:32:53.626Z,24.50
2019-03-10T15:35:27.772Z,24.49
2019-03-10T15:38:03.133Z,24.48
2019-03-10T15:40:37.109Z,24.48
2019-03-10T15:43:11.190Z,24.49
2019-03-10T15:45:45.469Z,24.48
2019-03-10T15:48:19.794Z,24.47
2019-03-10T15:50:53.810Z,24.47
2019-03-10T15:53:28.283Z,24.45
2019-03-10T15:56:02.350Z,24.44
2019-03-10T15:58:38.310Z,24.46
2019-03-10T16:01:12.766Z,24.46
2019-03-10T16:03:46.928Z,24.43
2019-03-10T16:06:21.227Z,24.75
2019-03-10T16:08:55.866Z,24.86
2019-03-10T16:11:30.139Z,24.91
2019-03-10T16:14:04.720Z,24.93
2019-03-10T16:16:40.087Z,25.00
2019-03-10T16:19:15.733Z,25.00
2019-03-10T16:21:49.917Z,25.07
2019-03-10T16:24:24.274Z,25.11
2019-03-10T16:26:58.417Z,25.08
2019-03-10T16:29:33.046Z,25.12
2019-03-10T16:32:07.291Z,25.12
2019-03-10T16:34:41.546Z,25.19
2019-03-10T16:37:15.958Z,25.20
2019-03-10T16:39:50.528Z,25.19
2019-03-10T16:42:24.930Z,25.23
2019-03-10T16:45:00.513Z,25.23
2019-03-10T16:47:34.702Z,25.24
2019-03-10T16:50:10.656Z,25.28
2019-03-10T16:52:45.744Z,25.28
2019-03-10T16:55:20.196Z,25.32
2019-03-10T16:57:54.565Z,25.24
2019-03-10T17:00:28.709Z,25.29
2019-03-10T17:03:02.821Z,25.27
2019-03-10T17:05:36.771Z,25.31
2019-03-10T17:08:10.955Z,25.34
2019-03-10T17:10:45.059Z,25.35
2019-03-10T17:13:19.408Z,25.38
2019-03-10T17:15:53.696Z,25.34
2019-03-10T17:18:28.053Z,25.34
2019-03-10T17:21:02.462Z,25.36
2019-03-10T17:23:36.745Z,25.37
2019-03-10T17:26:10.949Z,25.37
2019-03-10T17:28:45.311Z,25.35
2019-03-10T17:31:21.432Z,25.39
2019-03-10T17:33:55.867Z,25.41
2019-03-10T17:36:30.062Z,25.39
2019-03-10T17:39:07.812Z,25.41
2019-03-10T17:41:41.956Z,25.40
2019-03-10T17:44:16.288Z,25.40
2019-03-10T17:46:50.357Z,25.39
2019-03-10T17:49:24.453Z,25.39
2019-03-10T17:51:59.478Z,25.43
2019-03-10T17:54:33.456Z,25.40
2019-03-10T17:57:07.795Z,25.39
2019-03-10T17:59:42.028Z,25.43
2019-03-10T18:02:16.107Z,25.44
2019-03-10T18:04:50.232Z,25.43
2019-03-10T18:07:24.313Z,25.45
2019-03-10T18:09:58.666Z,25.44
2019-03-10T18:12:32.998Z,25.42
2019-03-10T18:15:09.206Z,25.43
2019-03-10T18:17:44.339Z,25.42
2019-03-10T18:20:18.751Z,25.46
2019-03-10T18:22:53.255Z,25.45
2019-03-10T18:25:27.427Z,25.45
2019-03-10T18:28:01.511Z,25.47
2019-03-10T18:30:35.915Z,25.49
2019-03-10T18:33:11.306Z,25.49
2019-03-10T18:35:45.639Z,25.47
2019-03-10T18:38:19.827Z,25.48
2019-03-10T18:40:53.863Z,25.45
2019-03-10T18:43:28.101Z,25.36
2019-03-10T18:46:02.241Z,25.38
2019-03-10T18:48:37.336Z,25.37
2019-03-10T18:51:13.519Z,25.37
2019-03-10T18:53:47.590Z,25.41
2019-03-10T18:56:21.998Z,25.41
2019-03-10T18:58:56.626Z,25.39
2019-03-10T19:01:30.795Z,25.38
2019-03-10T19:04:05.167Z,25.45
2019-03-10T19:06:39.554Z,25.46
2019-03-10T19:09:16.303Z,25.39
2019-03-10T19:11:49.787Z,25.40
2019-03-10T19:14:25.246Z,25.41
2019-03-10T19:17:00.423Z,25.39
2019-03-10T19:19:34.434Z,25.39
2019-03-10T19:22:08.567Z,25.42
2019-03-10T19:24:43.663Z,25.46
2019-03-10T19:27:17.709Z,25.43
2019-03-10T19:29:51.901Z,25.46
2019-03-10T19:32:26.336Z,25.47
2019-03-10T19:35:00.412Z,25.45
2019-03-10T19:37:34.719Z,25.42
2019-03-10T19:40:09.610Z,25.43
2019-03-10T19:42:43.975Z,25.41
2019-03-10T19:45:18.690Z,25.42
2019-03-10T19:47:53.185Z,25.39
2019-03-10T19:50:27.963Z,25.36
2019-03-10T19:53:02.163Z,25.37
2019-03-10T19:55:36.480Z,25.37
2019-03-10T19:58:10.665Z,25.34
2019-03-10T20:00:46.069Z,25.34
2019-03-10T20:03:21.486Z,25.34
2019-03-10T20:05:55.660Z,25.34
2019-03-10T20:08:30.073Z,25.33
2019-03-10T20:11:05.454Z,25.28
2019-03-10T20:13:39.646Z,25.33
2019-03-10T20:16:13.913Z,25.30
2019-03-10T20:18:48.178Z,25.29
2019-03-10T20:21:22.406Z,25.30
2019-03-10T20:23:57.069Z,25.28
2019-03-10T20:26:32.425Z,25.29
2019-03-10T20:29:07.300Z,25.29
2019-03-10T20:31:41.843Z,25.26
2019-03-10T20:34:16.062Z,25.26
2019-03-10T20:36:52.166Z,25.29
2019-03-10T20:39:26.458Z,25.28
2019-03-10T20:42:05.212Z,25.28
2019-03-10T20:44:36.724Z,25.26
2019-03-10T20:47:11.914Z,25.24
2019-03-10T20:49:46.208Z,25.29
2019-03-10T20:52:20.250Z,25.25
2019-03-10T20:54:54.656Z,25.22
2019-03-10T20:57:28.965Z,25.21
2019-03-10T21:00:03.800Z,25.22
2019-03-10T21:02:38.620Z,25.21
2019-03-10T21:05:13.254Z,25.18
2019-03-10T21:07:48.572Z,25.14
2019-03-10T21:10:22.785Z,25.18
2019-03-10T21:12:56.964Z,25.16
2019-03-10T21:15:31.572Z,25.20
2019-03-10T21:18:05.833Z,25.23
2019-03-10T21:20:40.045Z,25.18
2019-03-10T21:23:15.077Z,25.19
2019-03-10T21:25:49.545Z,25.24
2019-03-10T21:28:25.424Z,25.23
2019-03-10T21:30:59.702Z,25.21
2019-03-10T21:33:33.699Z,25.23
2019-03-10T21:36:08.884Z,25.22
2019-03-10T21:38:43.282Z,25.22
2019-03-10T21:41:17.577Z,25.22
2019-03-10T21:43:51.912Z,25.20
2019-03-10T21:46:26.204Z,25.20
2019-03-10T21:49:00.382Z,25.15
2019-03-10T21:51:34.829Z,25.16
2019-03-10T21:54:09.100Z,25.18
2019-03-10T21:56:43.026Z,25.20
2019-03-10T21:59:17.049Z,25.18
2019-03-10T22:01:51.238Z,25.15
2019-03-10T22:04:25.595Z,25.15
2019-03-10T22:06:59.862Z,25.19
2019-03-10T22:09:34.897Z,25.15
2019-03-10T22:12:09.292Z,25.14
2019-03-10T22:14:43.468Z,25.17
2019-03-10T22:17:17.676Z,25.16
2019-03-10T22:19:51.748Z,25.14
2019-03-10T22:22:25.955Z,25.15
2019-03-10T22:25:04.743Z,25.12
2019-03-10T22:27:36.086Z,25.12
2019-03-10T22:30:10.730Z,25.09
2019-03-10T22:32:44.694Z,25.07
2019-03-10T22:35:19.192Z,25.08
2019-03-10T22:37:54.481Z,25.09
2019-03-10T22:40:28.800Z,25.11
2019-03-10T22:43:02.867Z,25.10
2019-03-10T22:45:36.983Z,25.09
2019-03-10T22:48:11.213Z,25.06
2019-03-10T22:50:45.352Z,25.06
2019-03-10T22:53:19.683Z,25.07
2019-03-10T22:55:53.972Z,25.06
2019-03-10T22:58:28.097Z,25.04
2019-03-10T23:01:02.226Z,25.02
2019-03-10T23:03:37.390Z,25.02
2019-03-10T23:06:11.524Z,25.01
2019-03-10T23:08:45.785Z,25.00
2019-03-10T23:11:20.130Z,24.99
2019-03-10T23:13:54.237Z,25.00
2019-03-10T23:16:28.413Z,24.98
2019-03-10T23:19:02.441Z,24.98
2019-03-10T23:21:36.609Z,24.95
2019-03-10T23:24:10.921Z,24.97
2019-03-10T23:26:45.238Z,24.96
2019-03-10T23:29:19.269Z,24.95
2019-03-10T23:31:53.564Z,24.95
2019-03-10T23:34:27.480Z,24.95
2019-03-10T23:37:02.651Z,24.95
2019-03-10T23:39:37.561Z,24.97
2019-03-10T23:42:11.902Z,24.96
2019-03-10T23:44:46.176Z,24.95
2019-03-10T23:47:20.552Z,24.94
2019-03-10T23:49:54.839Z,24.92
2019-03-10T23:52:29.048Z,24.92
2019-03-10T23:55:03.234Z,24.92
2019-03-10T23:57:37.453Z,24.92
